createdAt,value
2023-05-18T00:02:08.898Z,10.10
2023-05-18T00:04:56.965Z,10.10
2023-05-18T00:07:43.863Z,10.00
2023-05-18T00:10:31.156Z,10.00
2023-05-18T00:13:17.022Z,10.00
2023-05-18T00:16:02.809Z,10.00
2023-05-18T00:18:48.800Z,9.90
2023-05-18T00:21:36.533Z,9.90
2023-05-18T00:24:22.370Z,9.90
2023-05-18T00:27:08.130Z,9.80
2023-05-18T00:29:53.790Z,9.70
2023-05-18T00:32:39.471Z,9.70
2023-05-18T00:35:25.567Z,9.70
2023-05-18T00:38:15.329Z,9.70
2023-05-18T00:41:02.079Z,9.60
2023-05-18T00:43:48.186Z,9.50
2023-05-18T00:46:34.251Z,9.40
2023-05-18T00:49:20.501Z,9.50
2023-05-18T00:52:06.690Z,9.40
2023-05-18T00:54:54.358Z,9.40
2023-05-18T00:57:42.109Z,9.40
2023-05-18T01:00:28.976Z,9.40
2023-05-18T01:03:15.436Z,9.30
2023-05-18T01:06:01.309Z,9.30
2023-05-18T01:08:48.497Z,9.30
2023-05-18T01:11:43.981Z,9.20
2023-05-18T01:14:36.597Z,9.10
2023-05-18T01:17:33.604Z,9.10
2023-05-18T01:20:29.341Z,9.00
2023-05-18T01:23:48.629Z,9.00
2023-05-18T01:26:39.564Z,9.10
2023-05-18T01:29:27.220Z,9.10
2023-05-18T01:32:19.498Z,9.10
2023-05-18T01:35:06.125Z,9.00
2023-05-18T01:37:51.758Z,9.10
2023-05-18T01:40:43.761Z,9.00
2023-05-18T01:43:33.720Z,9.00
2023-05-18T01:46:28.941Z,9.00
2023-05-18T01:49:20.950Z,8.90
2023-05-18T01:52:11.252Z,9.00
2023-05-18T01:55:01.795Z,8.90
2023-05-18T01:57:49.793Z,9.00
2023-05-18T02:00:38.051Z,8.90
2023-05-18T02:03:24.219Z,8.70
2023-05-18T02:06:09.681Z,8.60
2023-05-18T02:08:56.407Z,8.50
2023-05-18T02:11:42.107Z,8.60
2023-05-18T02:14:28.012Z,8.70
2023-05-18T02:17:15.137Z,8.60
2023-05-18T02:20:06.941Z,8.70
2023-05-18T02:22:52.898Z,8.70
2023-05-18T02:25:38.779Z,8.70
2023-05-18T02:28:24.651Z,8.70
2023-05-18T02:31:11.889Z,8.70
2023-05-18T02:33:58.990Z,8.70
2023-05-18T02:36:46.044Z,8.70
2023-05-18T02:39:31.766Z,8.80
2023-05-18T02:42:17.648Z,8.70
2023-05-18T02:45:03.694Z,8.70
2023-05-18T02:47:49.753Z,8.80
2023-05-18T02:50:37.052Z,8.80
2023-05-18T02:53:23.498Z,8.80
2023-05-18T02:56:09.475Z,8.80
2023-05-18T02:59:07.940Z,8.80
2023-05-18T03:01:56.580Z,8.90
2023-05-18T03:04:42.719Z,8.70
2023-05-18T03:07:30.363Z,8.70
2023-05-18T03:10:16.651Z,8.70
2023-05-18T03:13:02.434Z,8.70
2023-05-18T03:15:49.297Z,8.50
2023-05-18T03:18:35.313Z,8.40
2023-05-18T03:21:21.890Z,8.40
2023-05-18T03:24:08.962Z,8.40
2023-05-18T03:26:57.280Z,8.30
2023-05-18T03:29:44.405Z,8.40
2023-05-18T03:32:33.256Z,8.40
2023-05-18T03:35:19.042Z,8.30
2023-05-18T03:38:04.761Z,8.40
2023-05-18T03:40:52.766Z,8.40
2023-05-18T03:43:38.840Z,8.50
2023-05-18T03:46:26.715Z,8.50
2023-05-18T03:49:12.672Z,8.50
2023-05-18T03:52:01.964Z,8.50
2023-05-18T03:54:49.804Z,8.60
2023-05-18T03:57:38.455Z,8.80
2023-05-18T04:00:24.706Z,8.70
2023-05-18T04:03:12.759Z,8.60
2023-05-18T04:05:58.504Z,8.60
2023-05-18T04:08:46.411Z,8.70
2023-05-18T04:11:31.866Z,8.80
2023-05-18T04:14:20.871Z,9.00
2023-05-18T04:17:07.042Z,9.10
2023-05-18T04:19:53.091Z,9.20
2023-05-18T04:22:46.677Z,9.30
2023-05-18T04:25:32.772Z,9.60
2023-05-18T04:28:19.224Z,9.70
2023-05-18T04:31:06.630Z,9.90
2023-05-18T04:33:52.445Z,10.20
2023-05-18T04:36:42.620Z,10.50
2023-05-18T04:39:28.683Z,10.70
2023-05-18T04:42:14.624Z,10.80
2023-05-18T04:45:03.924Z,11.20
2023-05-18T04:47:54.235Z,12.00
2023-05-18T04:50:42.002Z,13.00
2023-05-18T04:53:27.900Z,13.90
2023-05-18T04:56:13.988Z,15.00
2023-05-18T04:59:00.189Z,16.10
2023-05-18T05:01:48.115Z,17.20
2023-05-18T05:04:35.267Z,18.00
2023-05-18T05:07:21.750Z,18.50
2023-05-18T05:10:08.918Z,18.70
2023-05-18T05:12:54.762Z,18.60
2023-05-18T05:15:40.612Z,17.60
2023-05-18T05:18:26.413Z,17.00
2023-05-18T05:21:18.193Z,15.70
2023-05-18T05:24:06.081Z,16.20
2023-05-18T05:26:51.680Z,16.50
2023-05-18T05:29:37.378Z,15.60
2023-05-18T05:32:22.997Z,16.10
2023-05-18T05:35:09.900Z,16.20
2023-05-18T05:37:56.992Z,15.90
2023-05-18T05:40:43.269Z,15.60
2023-05-18T05:43:29.069Z,16.30
2023-05-18T05:46:14.981Z,17.00
2023-05-18T05:49:02.128Z,17.20
2023-05-18T05:51:48.848Z,17.60
2023-05-18T05:54:36.257Z,18.20
2023-05-18T05:57:25.257Z,19.30
2023-05-18T06:00:13.493Z,20.60
2023-05-18T06:03:11.933Z,20.90
2023-05-18T06:06:03.996Z,21.20
2023-05-18T06:08:50.275Z,20.90
2023-05-18T06:11:38.735Z,21.30
2023-05-18T06:14:24.585Z,20.20
2023-05-18T06:17:11.271Z,18.00
2023-05-18T06:19:57.466Z,18.40
2023-05-18T06:22:44.624Z,18.50
2023-05-18T06:25:42.303Z,18.30
2023-05-18T06:28:35.990Z,18.80
2023-05-18T06:31:38.256Z,19.50
2023-05-18T06:34:34.663Z,20.80
2023-05-18T06:37:21.399Z,20.70
2023-05-18T06:40:08.863Z,21.40
2023-05-18T06:42:54.878Z,21.80
2023-05-18T06:45:47.915Z,23.10
2023-05-18T06:48:55.272Z,21.50
2023-05-18T06:51:42.900Z,22.00
2023-05-18T06:54:29.890Z,21.40
2023-05-18T06:57:15.832Z,21.90
2023-05-18T07:00:02.776Z,21.80
2023-05-18T07:02:51.285Z,23.00
2023-05-18T07:05:39.569Z,24.20
2023-05-18T07:08:25.743Z,23.60
2023-05-18T07:11:11.627Z,20.90
2023-05-18T07:13:57.367Z,22.70
2023-05-18T07:16:44.287Z,23.00
2023-05-18T07:19:31.535Z,22.60
2023-05-18T07:22:17.322Z,22.40
2023-05-18T07:25:06.468Z,22.90
2023-05-18T07:27:54.564Z,22.70
2023-05-18T07:30:41.265Z,22.10
2023-05-18T07:33:27.139Z,20.60
2023-05-18T07:36:14.522Z,19.60
2023-05-18T07:39:01.277Z,19.50
2023-05-18T07:41:48.500Z,19.80
2023-05-18T07:44:34.130Z,18.80
2023-05-18T07:47:21.613Z,18.50
2023-05-18T07:50:08.468Z,18.50
2023-05-18T07:52:58.364Z,18.70
2023-05-18T07:55:44.324Z,18.30
2023-05-18T07:58:30.598Z,18.00
2023-05-18T08:01:17.126Z,17.40
2023-05-18T08:04:03.027Z,18.70
2023-05-18T08:06:48.976Z,20.20
2023-05-18T08:09:36.386Z,21.10
2023-05-18T08:12:23.198Z,21.80
2023-05-18T08:15:10.060Z,22.40
2023-05-18T08:17:57.119Z,22.10
2023-05-18T08:20:44.018Z,21.90
2023-05-18T08:23:29.742Z,21.10
2023-05-18T08:26:17.350Z,20.50
2023-05-18T08:29:09.581Z,20.30
2023-05-18T08:31:55.670Z,19.70
2023-05-18T08:34:41.724Z,19.80
2023-05-18T08:37:29.438Z,19.60
2023-05-18T08:40:15.764Z,19.30
2023-05-18T08:43:07.316Z,19.30
2023-05-18T08:45:58.769Z,19.50
2023-05-18T08:48:46.888Z,18.40
2023-05-18T08:51:35.440Z,19.00
2023-05-18T08:54:23.310Z,18.70
2023-05-18T08:57:10.649Z,18.80
2023-05-18T09:00:00.570Z,17.90
2023-05-18T09:02:48.618Z,17.50
2023-05-18T09:05:35.039Z,18.60
2023-05-18T09:08:22.066Z,18.00
2023-05-18T09:11:09.488Z,18.40
2023-05-18T09:13:55.725Z,19.40
2023-05-18T09:16:42.814Z,19.40
2023-05-18T09:19:28.894Z,19.10
2023-05-18T09:22:15.356Z,19.00
2023-05-18T09:25:01.011Z,19.10
2023-05-18T09:27:48.780Z,18.70
2023-05-18T09:30:41.345Z,19.60
2023-05-18T09:33:34.429Z,20.10
2023-05-18T09:36:25.227Z,18.80
2023-05-18T09:39:11.671Z,18.60
2023-05-18T09:41:58.133Z,17.80
2023-05-18T09:44:46.118Z,17.50
2023-05-18T09:47:34.356Z,17.60
2023-05-18T09:50:22.229Z,19.50
2023-05-18T09:53:09.295Z,20.40
2023-05-18T09:55:55.539Z,21.30
2023-05-18T09:58:41.639Z,20.90
2023-05-18T10:01:27.633Z,22.30
2023-05-18T10:04:13.750Z,22.20
2023-05-18T10:07:02.014Z,19.80
2023-05-18T10:10:01.667Z,21.00
2023-05-18T10:12:47.830Z,20.70
2023-05-18T10:15:35.408Z,22.20
2023-05-18T10:18:23.183Z,22.10
2023-05-18T10:21:12.528Z,21.10
2023-05-18T10:24:03.081Z,20.30
2023-05-18T10:26:54.093Z,21.10
2023-05-18T10:29:41.466Z,21.70
2023-05-18T10:32:29.873Z,21.20
2023-05-18T10:35:16.930Z,22.30
2023-05-18T10:38:05.285Z,21.20
2023-05-18T10:40:53.677Z,20.80
2023-05-18T10:43:42.165Z,21.10
2023-05-18T10:46:28.539Z,21.50
2023-05-18T10:49:17.419Z,22.30
2023-05-18T10:52:07.484Z,23.30
2023-05-18T10:54:54.234Z,24.50
2023-05-18T10:57:46.042Z,24.40
2023-05-18T11:00:35.139Z,25.80
2023-05-18T11:03:22.308Z,24.40
2023-05-18T11:06:10.502Z,23.60
2023-05-18T11:08:56.395Z,24.20
2023-05-18T11:11:53.084Z,26.80
2023-05-18T11:14:48.477Z,27.30
2023-05-18T11:17:34.276Z,26.40
2023-05-18T11:20:25.727Z,26.10
2023-05-18T11:23:14.626Z,26.60
2023-05-18T11:26:04.758Z,26.40
2023-05-18T11:28:52.863Z,25.70
2023-05-18T11:31:47.504Z,25.60
2023-05-18T11:34:42.353Z,24.60
2023-05-18T11:37:55.812Z,24.50
2023-05-18T11:40:46.828Z,25.70
2023-05-18T11:43:33.433Z,26.90
2023-05-18T11:46:22.276Z,25.90
2023-05-18T11:49:09.859Z,25.90
2023-05-18T11:52:04.483Z,26.10
2023-05-18T11:54:53.180Z,23.80
2023-05-18T11:57:40.647Z,23.20
2023-05-18T12:00:26.611Z,22.00
2023-05-18T12:03:13.557Z,22.30
2023-05-18T12:06:01.306Z,22.90
2023-05-18T12:08:47.152Z,24.60
2023-05-18T12:11:33.564Z,25.20
2023-05-18T12:14:20.978Z,25.10
2023-05-18T12:17:07.542Z,24.10
2023-05-18T12:19:53.582Z,24.90
2023-05-18T12:22:42.891Z,24.80
2023-05-18T12:25:28.970Z,26.00
2023-05-18T12:28:16.622Z,25.10
2023-05-18T12:31:07.337Z,25.10
2023-05-18T12:33:56.089Z,26.10
2023-05-18T12:36:52.479Z,23.70
2023-05-18T12:39:39.561Z,23.70
2023-05-18T12:42:25.439Z,23.80
2023-05-18T12:45:11.949Z,24.40
2023-05-18T12:48:04.429Z,24.80
2023-05-18T12:50:51.399Z,24.40
2023-05-18T12:53:43.267Z,23.70
2023-05-18T12:56:50.881Z,23.70
2023-05-18T12:59:47.258Z,22.30
2023-05-18T13:02:36.606Z,22.60
2023-05-18T13:05:25.325Z,22.70
2023-05-18T13:08:14.608Z,22.00
2023-05-18T13:11:12.591Z,22.60
2023-05-18T13:14:03.560Z,22.70
2023-05-18T13:16:52.379Z,23.20
2023-05-18T13:19:37.903Z,23.10
2023-05-18T13:22:23.735Z,22.40
2023-05-18T13:25:09.539Z,21.80
2023-05-18T13:27:56.196Z,22.50
2023-05-18T13:30:44.811Z,22.50
2023-05-18T13:33:30.531Z,20.50
2023-05-18T13:36:17.255Z,20.90
2023-05-18T13:39:07.163Z,22.00
2023-05-18T13:41:53.135Z,22.50
2023-05-18T13:44:38.923Z,22.50
2023-05-18T13:47:26.322Z,22.10
2023-05-18T13:50:12.370Z,22.20
2023-05-18T13:52:58.242Z,22.40
2023-05-18T13:55:44.173Z,22.60
2023-05-18T13:58:30.170Z,22.10
2023-05-18T14:01:17.833Z,21.60
2023-05-18T14:04:05.249Z,21.80
2023-05-18T14:06:54.245Z,22.20
2023-05-18T14:09:40.035Z,22.40
2023-05-18T14:12:25.839Z,22.40
2023-05-18T14:15:13.902Z,22.20
2023-05-18T14:17:59.708Z,20.90
2023-05-18T14:20:48.412Z,21.10
2023-05-18T14:23:34.069Z,21.80
2023-05-18T14:26:19.601Z,21.70
2023-05-18T14:29:05.700Z,22.60
2023-05-18T14:31:51.803Z,22.90
2023-05-18T14:34:37.356Z,22.60
2023-05-18T14:37:24.734Z,20.60
2023-05-18T14:40:11.446Z,20.40
2023-05-18T14:42:57.014Z,20.70
2023-05-18T14:45:44.891Z,21.50
2023-05-18T14:48:32.243Z,21.00
2023-05-18T14:51:18.431Z,21.50
2023-05-18T14:54:05.861Z,21.50
2023-05-18T14:56:51.962Z,21.40
2023-05-18T14:59:43.412Z,21.00
2023-05-18T15:02:29.069Z,21.30
2023-05-18T15:05:15.013Z,21.80
2023-05-18T15:08:01.011Z,21.90
2023-05-18T15:10:49.923Z,21.70
2023-05-18T15:13:36.080Z,21.90
2023-05-18T15:16:22.318Z,22.50
2023-05-18T15:19:07.882Z,22.00
2023-05-18T15:21:53.876Z,22.00
2023-05-18T15:24:39.766Z,22.30
2023-05-18T15:27:27.252Z,22.00
2023-05-18T15:30:13.613Z,21.10
2023-05-18T15:32:59.705Z,21.30
2023-05-18T15:35:46.491Z,22.00
2023-05-18T15:38:32.230Z,21.70
2023-05-18T15:41:19.174Z,20.80
2023-05-18T15:44:06.384Z,20.50
2023-05-18T15:46:52.424Z,20.90
2023-05-18T15:49:38.034Z,21.90
2023-05-18T15:52:24.010Z,21.70
2023-05-18T15:55:10.317Z,20.30
2023-05-18T15:57:56.155Z,20.60
2023-05-18T16:00:43.514Z,21.20
2023-05-18T16:03:30.086Z,21.20
2023-05-18T16:06:16.199Z,20.30
2023-05-18T16:09:02.259Z,20.10
2023-05-18T16:11:48.072Z,19.90
2023-05-18T16:14:33.966Z,19.90
2023-05-18T16:17:21.367Z,20.10
2023-05-18T16:20:08.373Z,20.80
2023-05-18T16:22:54.525Z,20.20
2023-05-18T16:25:40.392Z,21.00
2023-05-18T16:28:26.311Z,20.80
2023-05-18T16:31:12.562Z,20.40
2023-05-18T16:33:59.917Z,20.50
2023-05-18T16:36:45.531Z,20.10
2023-05-18T16:39:31.326Z,20.40
2023-05-18T16:42:18.387Z,20.00
2023-05-18T16:45:04.846Z,19.00
2023-05-18T16:47:50.737Z,18.90
2023-05-18T16:50:38.000Z,19.50
2023-05-18T16:53:23.653Z,19.40
2023-05-18T16:56:09.648Z,19.40
2023-05-18T16:58:55.535Z,19.00
2023-05-18T17:01:41.667Z,18.40
2023-05-18T17:04:27.560Z,18.80
2023-05-18T17:07:14.426Z,19.20
2023-05-18T17:10:00.560Z,19.20
2023-05-18T17:12:46.629Z,19.20
2023-05-18T17:15:32.873Z,18.80
2023-05-18T17:18:18.830Z,18.60
2023-05-18T17:21:04.441Z,18.40
2023-05-18T17:23:51.403Z,18.20
2023-05-18T17:26:37.313Z,17.60
2023-05-18T17:29:23.447Z,17.70
2023-05-18T17:32:09.291Z,18.30
2023-05-18T17:34:55.215Z,18.00
2023-05-18T17:37:41.252Z,17.80
2023-05-18T17:40:28.414Z,17.60
2023-05-18T17:43:14.698Z,18.00
2023-05-18T17:46:00.636Z,18.20
2023-05-18T17:48:46.378Z,18.40
2023-05-18T17:51:32.407Z,18.80
2023-05-18T17:54:18.272Z,18.90
2023-05-18T17:57:05.846Z,18.80
2023-05-18T17:59:51.402Z,18.90
2023-05-18T18:02:36.993Z,18.70
2023-05-18T18:05:22.893Z,18.60
2023-05-18T18:08:08.464Z,18.30
2023-05-18T18:10:54.468Z,18.40
2023-05-18T18:13:41.506Z,18.50
2023-05-18T18:16:27.741Z,18.40
2023-05-18T18:19:14.964Z,18.40
2023-05-18T18:22:00.805Z,18.10
2023-05-18T18:24:46.869Z,17.80
2023-05-18T18:27:33.007Z,17.70
2023-05-18T18:30:20.069Z,18.00
2023-05-18T18:33:05.846Z,18.30
2023-05-18T18:35:52.017Z,18.30
2023-05-18T18:38:37.839Z,18.50
2023-05-18T18:41:23.704Z,18.50
2023-05-18T18:44:09.843Z,18.60
2023-05-18T18:46:57.143Z,18.30
2023-05-18T18:49:42.777Z,18.20
2023-05-18T18:52:28.453Z,18.60
2023-05-18T18:55:14.253Z,18.40
2023-05-18T18:58:01.269Z,18.40
2023-05-18T19:00:47.139Z,18.00
2023-05-18T19:03:35.230Z,17.90
2023-05-18T19:06:22.716Z,17.70
2023-05-18T19:09:08.222Z,17.70
2023-05-18T19:11:54.118Z,17.30
2023-05-18T19:14:39.982Z,17.20
2023-05-18T19:17:26.800Z,16.90
2023-05-18T19:20:13.843Z,16.70
2023-05-18T19:23:00.170Z,16.70
2023-05-18T19:25:46.068Z,16.70
2023-05-18T19:28:32.079Z,16.50
2023-05-18T19:31:18.058Z,16.70
2023-05-18T19:34:04.240Z,16.50
2023-05-18T19:36:51.936Z,16.10
2023-05-18T19:39:37.950Z,16.00
2023-05-18T19:42:23.802Z,16.00
2023-05-18T19:45:09.850Z,15.80
2023-05-18T19:47:55.726Z,15.60
2023-05-18T19:50:41.388Z,15.50
2023-05-18T19:53:28.648Z,15.30
2023-05-18T19:56:14.600Z,15.30
2023-05-18T19:59:00.566Z,15.40
2023-05-18T20:01:49.020Z,15.60
2023-05-18T20:04:34.950Z,15.70
2023-05-18T20:07:21.875Z,15.60
2023-05-18T20:10:09.171Z,15.90
2023-05-18T20:12:55.133Z,15.80
2023-05-18T20:15:40.810Z,15.60
2023-05-18T20:18:28.600Z,15.70
2023-05-18T20:21:14.528Z,15.90
2023-05-18T20:24:00.434Z,15.90
2023-05-18T20:26:47.964Z,15.90
2023-05-18T20:29:33.598Z,15.80
2023-05-18T20:32:19.448Z,15.80
2023-05-18T20:35:06.002Z,15.80
2023-05-18T20:37:55.802Z,15.60
2023-05-18T20:40:41.726Z,15.30
2023-05-18T20:43:28.923Z,15.40
2023-05-18T20:46:14.609Z,15.50
2023-05-18T20:49:00.467Z,15.30
2023-05-18T20:51:46.323Z,14.70
2023-05-18T20:54:32.362Z,14.40
2023-05-18T20:57:18.514Z,14.40
2023-05-18T21:00:07.996Z,14.40
2023-05-18T21:02:54.005Z,14.00
2023-05-18T21:05:40.170Z,13.90
2023-05-18T21:08:26.412Z,14.00
2023-05-18T21:11:12.019Z,14.10
2023-05-18T21:13:57.710Z,14.10
2023-05-18T21:16:45.099Z,13.90
2023-05-18T21:19:31.005Z,13.80
2023-05-18T21:22:16.992Z,14.00
2023-05-18T21:25:06.023Z,14.10
2023-05-18T21:27:51.804Z,13.70
2023-05-18T21:30:37.665Z,13.80
2023-05-18T21:33:25.117Z,13.60
2023-05-18T21:36:10.898Z,13.50
2023-05-18T21:38:56.580Z,13.50
2023-05-18T21:41:44.294Z,13.50
2023-05-18T21:44:30.033Z,13.30
2023-05-18T21:47:16.011Z,13.40
2023-05-18T21:50:04.180Z,13.30
2023-05-18T21:52:49.943Z,13.10
2023-05-18T21:55:36.230Z,13.10
2023-05-18T21:58:22.161Z,13.00
2023-05-18T22:01:07.908Z,13.10
2023-05-18T22:03:53.896Z,13.10
2023-05-18T22:06:41.431Z,13.40
2023-05-18T22:09:27.168Z,13.30
2023-05-18T22:12:13.226Z,13.60
2023-05-18T22:14:59.325Z,13.50
2023-05-18T22:17:46.143Z,13.40
2023-05-18T22:20:32.649Z,13.40
2023-05-18T22:23:19.976Z,13.30
2023-05-18T22:26:06.072Z,13.30
2023-05-18T22:28:52.154Z,13.20
2023-05-18T22:31:38.093Z,13.10
2023-05-18T22:34:24.334Z,12.80
2023-05-18T22:37:10.331Z,13.00
2023-05-18T22:39:57.663Z,13.20
2023-05-18T22:42:43.647Z,13.40
2023-05-18T22:45:29.550Z,13.40
2023-05-18T22:48:15.520Z,13.30
2023-05-18T22:51:01.359Z,13.40
2023-05-18T22:53:47.177Z,13.30
2023-05-18T22:56:34.420Z,13.50
2023-05-18T22:59:20.515Z,13.30
2023-05-18T23:02:06.532Z,13.20
2023-05-18T23:04:52.758Z,13.00
2023-05-18T23:07:38.677Z,13.00
2023-05-18T23:10:26.445Z,13.00
2023-05-18T23:13:16.960Z,13.10
2023-05-18T23:16:03.015Z,13.00
2023-05-18T23:18:50.546Z,12.60
2023-05-18T23:21:36.556Z,12.70
2023-05-18T23:24:22.553Z,12.40
2023-05-18T23:27:08.611Z,12.50
2023-05-18T23:29:56.003Z,12.50
2023-05-18T23:32:42.520Z,12.50
2023-05-18T23:35:28.872Z,12.50
2023-05-18T23:38:18.617Z,12.40
2023-05-18T23:41:05.226Z,12.40
2023-05-18T23:43:51.338Z,12.50
2023-05-18T23:46:39.323Z,12.40
2023-05-18T23:49:25.863Z,12.30
2023-05-18T23:52:13.667Z,12.30
2023-05-18T23:55:00.404Z,12.10
2023-05-18T23:57:46.545Z,11.90
